Nearby METAR Reports

 

EDNY - Friedrichshafen, Germany
Distance from station: ONO 32km
aktuell: 17.07.2018 03:20
Few Clouds
Few Clouds
 Wind von NO
Wind: NO 11 km/h
Temperatur: 14°C
Taupunkt: 13°C
Luftfeuchte: 94%
Luftdruck: 1015 hPa
Clouds: Few Clouds
Visibility: 10 km
Cloud details: Few Clouds 3353 m
2018/07/17 01:20 EDNY 170120Z AUTO 05006KT 9999 // FEW110/// 14/13 Q1015
LSZR - Rheineck/Altenrh, Switzerland
Distance from station: OSO 37km
aktuell: 17.07.2018 03:20
klar
klar
 Wind von varies
Wind: varies 2 km/h
Temperatur: 16°C
Taupunkt: 14°C
Luftfeuchte: 88%
Luftdruck: 1015 hPa
Zusammenfassung: klar
Visibility: greater than 10 km
2018/07/17 01:20 LSZR 170120Z AUTO VRB01KT CAVOK 16/14 Q1015
LSMD - Dubendorf, Switzerland
Distance from station: SW 40km
aktuell: 17.07.2018 02:50
Few Clouds
Few Clouds
 Wind von SO
Wind: SO 4 km/h
Temperatur: 15°C
Taupunkt: 14°C
Luftfeuchte: 94%
Luftdruck: 1015 hPa
Clouds: Few Clouds
Visibility: 16 miles
Cloud details: Few Clouds 3048 m
2018/07/17 00:50 LSMD 170050Z AUTO 13002KT 9999NDV FEW100 15/14 Q1015 RMK
 
LSZH - Zurich-Kloten (a, Switzerland
Distance from station: WSW 44km
aktuell: 17.07.2018 03:20
klar
klar
 Wind von calm
Wind: Windstill
Temperatur: 14°C
Taupunkt: 12°C
Luftfeuchte: 88%
Luftdruck: 1015 hPa
Zusammenfassung: klar
Visibility: greater than 10 km
2018/07/17 01:20 LSZH 170120Z 00000KT CAVOK 14/12 Q1015 NOSIG
LOIH - Hohenems-Dornbir, Austria
Distance from station: OSO 51km
aktuell: 31.10.2016 17:00
NOT Current
geschlossene Wolkendecke
geschlossene Wolkendecke
 Wind von calm
Wind: Windstill
Temperatur: 10°C
Taupunkt: 9°C
Luftfeuchte: 94%
Luftdruck: 1026 hPa
Clouds: geschlossene Wolkendecke
Cloud details: geschlossene Wolkendecke 305 m
2016/10/31 16:00 LOIH 311600Z 00000KT 10KM OVC010ST 10/09 Q1026 RMK OVC
LSME - Emmen, Switzerland
Distance from station: SW 82km
aktuell: 17.07.2018 02:50
Few Clouds
Few Clouds
 Wind von varies
Wind: varies 4 km/h
Temperatur: 15°C
Taupunkt: 12°C
Luftfeuchte: 82%
Luftdruck: 1015 hPa
Clouds: Few Clouds
Visibility: 16 miles
Cloud details: Few Clouds 3048 m
2018/07/17 00:50 LSME 170050Z AUTO VRB02KT 9999NDV FEW100 15/12 Q1015 RMK
 
LSZC - Buochs, Switzerland
Distance from station: SW 89km
aktuell: 17.07.2018 03:20
klar
klar
 Wind von WSW
Wind: WSW 6 km/h
Temperatur: 18°C
Taupunkt: 12°C
Luftfeuchte: 68%
Luftdruck: 1015 hPa
Clouds: klar
Visibility: 10 km
2018/07/17 01:20 LSZC 170120Z AUTO 25003KT 9999 NCD 18/12 Q1015
ETHL - Laupheim (ger-Ar, Germany
Distance from station: NO 92km
aktuell: 17.07.2018 03:20

 Wind von SW
Wind: SW 7 km/h
Temperatur: 14°C
Taupunkt: 12°C
Luftfeuchte: 88%
Luftdruck: 1015 hPa
Visibility: 10 km
2018/07/17 01:20 ETHL 170120Z 22004KT 9999 14/12 Q1015 BLU+
EDJA - Memmingen Allgau, Germany
Distance from station: ONO 95km
aktuell: 16.07.2018 22:20
NOT Current
klar
klar
 Wind von calm
Wind: Windstill
Temperatur: 16°C
Taupunkt: 14°C
Luftfeuchte: 88%
Luftdruck: 1014 hPa
Zusammenfassung: klar
Visibility: greater than 10 km
2018/07/16 20:20 EDJA 162020Z 00000KT CAVOK 16/14 Q1014
 
LSMA - Alpnach, Switzerland
Distance from station: SW 95km
aktuell: 17.07.2018 02:50
Few Clouds
Few Clouds
 Wind von calm
Wind: Windstill
Temperatur: 16°C
Taupunkt: 13°C
Luftfeuchte: 83%
Luftdruck: 1015 hPa
Clouds: Few Clouds
Visibility: 16 miles
Cloud details: Few Clouds 2682 m
2018/07/17 00:50 LSMA 170050Z AUTO 00000KT 9999NDV FEW088 16/13 Q1015 RMK